Time;durP1;ratioP1;P1;durP2;ratioP2;P2;SDS_P1;SDS_P2;PMS_P1;PMS_P2;Temp;Humidity;BMP_temperature;BMP_pressure;BME280_temperature;BME280_humidity;BME280_pressure;Samples;Min_cycle;Max_cycle;Signal;HPM_P1;HPM_P2
2023/06/15 00:02:43;;;;;;;8.48;2.63;;;19.30;68.10;;;;;;6121974;23;20017;-71
2023/06/15 00:05:29;;;;;;;4.25;2.63;;;19.20;68.20;;;;;;6122952;23;20010;-73
2023/06/15 00:08:15;;;;;;;7.10;3.63;;;19.20;68.20;;;;;;6124626;23;20110;-72
2023/06/15 00:11:01;;;;;;;6.40;2.65;;;19.20;68.40;;;;;;6122355;23;20440;-74
2023/06/15 00:13:47;;;;;;;5.00;2.72;;;19.20;69.00;;;;;;6123518;23;20436;-71
2023/06/15 00:16:33;;;;;;;7.05;3.65;;;19.20;68.60;;;;;;6121863;23;20013;-73
2023/06/15 00:19:19;;;;;;;4.28;2.80;;;19.10;68.60;;;;;;6120895;23;20022;-73
2023/06/15 00:22:06;;;;;;;7.15;3.55;;;19.00;68.80;;;;;;6122473;23;20093;-74
2023/06/15 00:24:55;;;;;;;5.07;2.58;;;19.00;68.90;;;;;;6122602;23;20014;-63
2023/06/15 00:27:42;;;;;;;4.13;2.58;;;19.00;69.10;;;;;;6123355;23;20018;-63
2023/06/15 00:30:28;;;;;;;5.20;2.60;;;19.00;69.10;;;;;;6121289;23;20018;-63
2023/06/15 00:33:14;;;;;;;7.13;2.55;;;18.90;69.30;;;;;;6123114;23;20093;-62
2023/06/15 00:36:00;;;;;;;8.32;2.53;;;18.90;69.50;;;;;;6120934;23;20010;-63
2023/06/15 00:38:46;;;;;;;6.38;2.75;;;18.80;70.10;;;;;;6123773;23;20020;-62
2023/06/15 00:41:40;;;;;;;3.42;2.58;;;18.80;69.80;;;;;;6123420;23;20006;-63
2023/06/15 00:44:26;;;;;;;5.07;3.17;;;18.80;70.00;;;;;;6123133;23;20014;-63
2023/06/15 00:47:13;;;;;;;6.43;3.55;;;18.80;70.00;;;;;;6122794;23;20021;-62
2023/06/15 00:49:59;;;;;;;7.47;3.03;;;18.70;70.10;;;;;;6121209;23;20439;-63
2023/06/15 00:52:47;;;;;;;5.88;2.80;;;18.70;70.30;;;;;;6122394;23;20213;-62
2023/06/15 00:55:34;;;;;;;5.38;3.05;;;18.70;70.40;;;;;;6122978;23;20017;-63
2023/06/15 00:58:21;;;;;;;5.45;2.97;;;18.60;70.50;;;;;;6124206;23;20010;-61
2023/06/15 01:01:06;;;;;;;6.45;2.95;;;18.60;70.80;;;;;;6122494;23;20456;-62
2023/06/15 01:03:54;;;;;;;5.78;2.97;;;18.50;70.80;;;;;;6120667;23;20010;-62
2023/06/15 01:06:51;;;;;;;5.03;2.95;;;18.50;71.00;;;;;;6121135;23;20463;-63
2023/06/15 01:09:41;;;;;;;3.58;2.40;;;18.50;71.20;;;;;;6123252;23;20340;-62
2023/06/15 01:12:28;;;;;;;4.30;2.53;;;18.50;71.40;;;;;;6124248;23;20462;-63
2023/06/15 01:15:14;;;;;;;4.15;3.00;;;18.40;71.50;;;;;;6121988;23;20016;-63
2023/06/15 01:18:03;;;;;;;7.05;2.85;;;18.30;71.80;;;;;;6121409;23;20022;-63
2023/06/15 01:20:53;;;;;;;4.35;2.50;;;18.30;72.00;;;;;;6122779;23;20017;-62
2023/06/15 01:24:23;;;;;;;4.15;2.75;;;18.20;72.10;;;;;;6122587;23;20014;-62
2023/06/15 01:27:11;;;;;;;5.05;2.30;;;18.20;72.30;;;;;;6120332;23;20022;-62
2023/06/15 01:29:59;;;;;;;5.15;2.78;;;18.10;72.20;;;;;;6122471;23;20033;-62
2023/06/15 01:32:45;;;;;;;4.68;2.60;;;18.10;72.30;;;;;;6121453;23;20025;-63
2023/06/15 01:35:38;;;;;;;3.88;2.50;;;18.10;72.50;;;;;;5098961;27;20410;-64
2023/06/15 01:38:28;;;;;;;7.47;3.40;;;18.00;73.00;;;;;;5087562;28;20520;-64
2023/06/15 01:41:16;;;;;;;6.47;3.72;;;18.00;73.00;;;;;;5094628;28;20028;-63
2023/06/15 01:44:03;;;;;;;8.32;3.08;;;18.00;73.10;;;;;;5107560;28;20054;-64
2023/06/15 01:46:49;;;;;;;6.07;2.83;;;17.90;73.30;;;;;;5094085;28;20105;-63
2023/06/15 01:49:36;;;;;;;4.72;2.65;;;17.90;73.30;;;;;;5097710;28;20107;-73
2023/06/15 01:52:22;;;;;;;4.60;2.97;;;17.80;73.20;;;;;;5104665;28;20031;-74
2023/06/15 01:55:08;;;;;;;12.32;3.22;;;17.80;73.50;;;;;;5126857;28;20031;-71
2023/06/15 01:57:54;;;;;;;5.80;2.90;;;17.70;73.60;;;;;;5096132;28;20111;-73
2023/06/15 02:00:40;;;;;;;8.10;2.95;;;17.70;73.80;;;;;;5093786;28;20483;-72
2023/06/15 02:03:26;;;;;;;6.88;3.10;;;17.70;73.80;;;;;;5106269;28;20495;-72
2023/06/15 02:06:12;;;;;;;7.70;3.20;;;17.60;73.90;;;;;;5094943;28;20396;-73
2023/06/15 02:08:58;;;;;;;5.18;3.08;;;17.60;74.10;;;;;;5089105;28;20048;-73
2023/06/15 02:11:44;;;;;;;7.20;3.00;;;17.50;74.20;;;;;;5086397;28;20032;-72
2023/06/15 02:14:31;;;;;;;4.25;3.20;;;17.50;74.30;;;;;;5086875;28;20063;-74
2023/06/15 02:17:17;;;;;;;8.32;2.95;;;17.50;74.60;;;;;;5105265;28;20032;-75
2023/06/15 02:20:10;;;;;;;4.60;3.05;;;17.40;74.70;;;;;;5110221;27;20168;-74
2023/06/15 02:22:57;;;;;;;6.82;3.22;;;17.40;74.90;;;;;;5114730;28;20110;-74
2023/06/15 02:25:43;;;;;;;5.97;3.35;;;17.30;75.30;;;;;;5114538;28;20032;-72
2023/06/15 02:28:29;;;;;;;6.00;3.15;;;17.30;75.40;;;;;;5106164;28;20032;-74
2023/06/15 02:31:15;;;;;;;5.10;3.08;;;17.30;75.30;;;;;;5120062;28;20047;-73
2023/06/15 02:34:01;;;;;;;4.53;2.85;;;17.30;75.40;;;;;;5125845;28;20076;-73
2023/06/15 02:36:48;;;;;;;3.97;3.00;;;17.20;75.60;;;;;;5106903;28;20487;-74
2023/06/15 02:39:34;;;;;;;5.07;3.20;;;17.20;75.60;;;;;;5104602;28;20043;-74
2023/06/15 02:42:20;;;;;;;5.28;2.72;;;17.20;75.80;;;;;;5105824;28;20032;-73
2023/06/15 02:45:07;;;;;;;4.80;3.10;;;17.20;75.90;;;;;;5103126;28;20115;-74
2023/06/15 02:47:53;;;;;;;3.90;2.72;;;17.20;76.10;;;;;;5091928;28;20039;-63
2023/06/15 02:50:39;;;;;;;9.80;2.90;;;17.10;76.20;;;;;;5092956;28;20058;-63
2023/06/15 02:53:25;;;;;;;6.57;3.00;;;17.10;76.40;;;;;;5091572;28;20031;-63
2023/06/15 02:56:11;;;;;;;5.50;3.03;;;17.10;76.50;;;;;;5092986;28;20119;-62
2023/06/15 02:58:57;;;;;;;6.00;3.47;;;17.10;76.60;;;;;;5103993;27;20058;-63
2023/06/15 03:01:43;;;;;;;6.50;2.97;;;17.10;76.70;;;;;;5096732;27;20495;-63
2023/06/15 03:04:30;;;;;;;6.22;3.08;;;17.10;76.70;;;;;;5091183;28;20040;-63
2023/06/15 03:07:20;;;;;;;3.97;2.47;;;17.00;77.10;;;;;;5090517;28;20097;-63
2023/06/15 03:10:06;;;;;;;6.57;3.22;;;17.00;77.50;;;;;;5091515;28;20043;-63
2023/06/15 03:12:52;;;;;;;6.90;3.50;;;16.90;77.60;;;;;;5090863;28;20035;-63
2023/06/15 03:15:38;;;;;;;4.45;3.25;;;16.90;77.60;;;;;;5093299;28;20039;-64
2023/06/15 03:18:24;;;;;;;3.85;2.53;;;16.90;77.50;;;;;;5092081;28;20556;-63
2023/06/15 03:21:12;;;;;;;6.65;3.05;;;16.90;77.80;;;;;;5092128;28;20047;-63
2023/06/15 03:23:58;;;;;;;4.60;3.08;;;16.90;78.00;;;;;;5111011;28;20036;-64
2023/06/15 03:26:44;;;;;;;6.13;3.17;;;16.80;78.20;;;;;;5092706;27;20035;-64
2023/06/15 03:29:36;;;;;;;4.45;3.17;;;16.80;78.40;;;;;;5083720;28;20028;-64
2023/06/15 03:32:22;;;;;;;5.80;3.28;;;16.80;78.50;;;;;;5108805;28;20032;-64
2023/06/15 03:35:08;;;;;;;4.07;2.97;;;16.80;78.70;;;;;;5106847;28;20667;-64
2023/06/15 03:37:54;;;;;;;3.22;2.42;;;16.80;78.80;;;;;;5110419;28;20075;-63
2023/06/15 03:40:42;;;;;;;5.18;2.80;;;16.90;78.90;;;;;;5092048;28;20043;-64
2023/06/15 03:43:28;;;;;;;4.80;3.03;;;16.90;79.00;;;;;;5116442;27;20035;-64
2023/06/15 03:46:14;;;;;;;4.65;3.25;;;16.90;79.00;;;;;;5090840;28;20110;-64
2023/06/15 03:49:00;;;;;;;3.65;2.95;;;17.00;79.40;;;;;;5109964;28;20039;-64
2023/06/15 03:51:46;;;;;;;5.70;3.03;;;17.00;79.30;;;;;;5090704;28;20101;-63
2023/06/15 03:54:32;;;;;;;8.18;3.47;;;16.90;79.60;;;;;;5090678;28;20040;-62
2023/06/15 03:57:18;;;;;;;5.03;3.15;;;16.90;79.90;;;;;;5108160;28;20117;-62
2023/06/15 04:00:07;;;;;;;5.10;3.20;;;16.90;79.90;;;;;;5094852;28;20040;-63
2023/06/15 04:02:53;;;;;;;6.22;3.13;;;16.90;80.20;;;;;;5089564;28;20033;-62
2023/06/15 04:05:39;;;;;;;9.43;4.05;;;16.90;80.70;;;;;;5091256;28;20110;-62
2023/06/15 04:08:25;;;;;;;4.35;3.05;;;16.90;80.70;;;;;;5089330;28;20038;-62
2023/06/15 04:11:11;;;;;;;7.38;2.90;;;16.90;80.70;;;;;;5095308;27;20036;-63
2023/06/15 04:13:57;;;;;;;4.85;3.25;;;16.90;80.80;;;;;;5098443;28;20435;-63
2023/06/15 04:16:43;;;;;;;5.10;2.95;;;17.00;81.00;;;;;;5094605;28;20030;-63
2023/06/15 04:19:29;;;;;;;4.35;2.67;;;17.00;81.20;;;;;;5098445;28;20536;-61
2023/06/15 04:22:16;;;;;;;4.32;3.03;;;17.00;81.80;;;;;;5090228;28;20488;-62
2023/06/15 04:25:03;;;;;;;4.47;2.60;;;17.00;81.90;;;;;;5102801;27;20039;-62
2023/06/15 04:27:49;;;;;;;6.07;2.83;;;17.00;82.00;;;;;;5096692;27;20039;-61
2023/06/15 04:30:35;;;;;;;4.20;2.67;;;17.00;82.10;;;;;;5098728;28;20103;-61
2023/06/15 04:33:22;;;;;;;4.18;3.10;;;17.10;82.20;;;;;;5096162;28;20024;-61
2023/06/15 04:36:12;;;;;;;6.47;2.88;;;17.10;82.50;;;;;;5097338;28;20685;-61
2023/06/15 04:38:59;;;;;;;3.83;2.72;;;17.20;82.50;;;;;;5094409;28;20138;-60
2023/06/15 04:41:45;;;;;;;6.68;3.30;;;17.30;82.50;;;;;;5101974;27;20106;-62
2023/06/15 04:44:31;;;;;;;6.05;2.85;;;17.30;82.60;;;;;;5091963;28;20095;-61
2023/06/15 04:47:17;;;;;;;5.05;3.08;;;17.40;82.60;;;;;;5094112;28;20392;-62
2023/06/15 04:50:04;;;;;;;6.72;3.05;;;17.50;82.70;;;;;;5091748;28;20028;-61
2023/06/15 04:52:50;;;;;;;5.18;3.00;;;17.50;82.60;;;;;;5099488;28;20039;-62
2023/06/15 04:55:36;;;;;;;6.25;3.47;;;17.60;82.50;;;;;;5104837;27;20091;-61
2023/06/15 04:58:22;;;;;;;15.27;3.20;;;17.60;82.50;;;;;;5130088;27;20027;-61
2023/06/15 05:01:08;;;;;;;5.75;3.17;;;17.60;82.60;;;;;;5092674;28;20035;-61
2023/06/15 05:03:54;;;;;;;4.00;2.72;;;17.70;82.60;;;;;;5108557;28;20028;-61
2023/06/15 05:06:40;;;;;;;7.18;3.33;;;17.80;82.50;;;;;;5092658;28;20074;-60
2023/06/15 05:09:27;;;;;;;7.40;3.03;;;17.90;82.30;;;;;;5088814;28;20476;-61
2023/06/15 05:12:13;;;;;;;6.22;2.60;;;17.90;82.20;;;;;;5108536;27;20059;-61
2023/06/15 05:14:59;;;;;;;5.95;3.03;;;17.90;82.20;;;;;;5100686;28;20040;-61
2023/06/15 05:17:45;;;;;;;8.85;2.80;;;18.00;82.20;;;;;;5114842;27;20087;-61
2023/06/15 05:20:31;;;;;;;6.55;3.33;;;18.10;82.30;;;;;;5111329;27;20046;-63
2023/06/15 05:23:19;;;;;;;5.22;3.10;;;18.10;81.80;;;;;;5088754;28;20777;-61
2023/06/15 05:26:05;;;;;;;9.57;3.08;;;18.10;81.90;;;;;;5096875;28;20453;-61
2023/06/15 05:28:51;;;;;;;4.75;3.05;;;18.20;82.10;;;;;;5104271;28;20041;-69
2023/06/15 05:31:37;;;;;;;7.95;3.30;;;18.10;82.10;;;;;;5083643;28;20036;-76
2023/06/15 05:34:23;;;;;;;6.72;3.15;;;18.10;82.20;;;;;;5087599;28;20051;-71
2023/06/15 05:37:09;;;;;;;5.15;2.92;;;18.10;82.10;;;;;;5089324;28;20032;-68
2023/06/15 05:39:55;;;;;;;4.38;2.70;;;18.20;82.40;;;;;;5088730;28;20096;-69
2023/06/15 05:42:41;;;;;;;5.20;2.97;;;18.30;82.40;;;;;;5089484;28;20036;-70
2023/06/15 05:45:27;;;;;;;6.15;3.30;;;18.30;82.80;;;;;;5087387;28;20070;-68
2023/06/15 05:48:14;;;;;;;6.35;3.25;;;18.30;82.20;;;;;;5081771;28;20463;-68
2023/06/15 05:51:00;;;;;;;4.95;2.67;;;18.30;82.20;;;;;;5091225;28;20036;-68
2023/06/15 05:53:46;;;;;;;6.18;3.33;;;18.30;82.30;;;;;;5085546;28;20047;-68
2023/06/15 05:56:32;;;;;;;6.65;3.15;;;18.40;82.20;;;;;;5098268;28;20081;-68
2023/06/15 05:59:18;;;;;;;7.95;3.20;;;18.40;82.30;;;;;;5092091;28;20082;-68
2023/06/15 06:02:04;;;;;;;7.13;3.00;;;18.50;82.30;;;;;;5078278;28;20071;-67
2023/06/15 06:04:50;;;;;;;5.10;2.45;;;18.50;82.40;;;;;;5094853;28;20514;-67
2023/06/15 06:07:36;;;;;;;6.90;3.13;;;18.50;82.10;;;;;;5102048;28;20122;-68
2023/06/15 06:10:22;;;;;;;8.23;3.35;;;18.60;82.10;;;;;;5098015;28;20431;-68
2023/06/15 06:13:08;;;;;;;5.72;3.03;;;18.60;81.90;;;;;;5089707;28;20036;-68
2023/06/15 06:15:54;;;;;;;7.53;3.35;;;18.60;81.90;;;;;;5093282;28;20070;-67
2023/06/15 06:18:40;;;;;;;7.18;2.50;;;18.60;82.10;;;;;;5105884;28;20031;-67
2023/06/15 06:21:26;;;;;;;5.10;2.80;;;18.60;82.30;;;;;;5091213;28;20620;-67
2023/06/15 06:24:12;;;;;;;7.00;3.28;;;18.70;82.00;;;;;;5096942;27;20028;-68
2023/06/15 06:26:57;;;;;;;5.65;3.33;;;18.80;81.70;;;;;;5094589;27;20117;-65
2023/06/15 06:29:43;;;;;;;5.95;3.28;;;18.90;82.00;;;;;;5100678;27;20023;-65
2023/06/15 06:32:29;;;;;;;6.30;3.35;;;19.00;81.90;;;;;;5101721;28;20077;-65
2023/06/15 06:35:15;;;;;;;6.18;2.90;;;19.00;81.30;;;;;;5093293;27;20039;-65
2023/06/15 06:38:01;;;;;;;4.00;2.55;;;19.10;81.00;;;;;;5092371;28;20028;-65
2023/06/15 06:40:47;;;;;;;7.30;2.80;;;19.10;81.00;;;;;;5093557;27;20032;-65
2023/06/15 06:43:33;;;;;;;6.72;2.95;;;19.20;81.40;;;;;;5091223;28;20508;-65
2023/06/15 06:46:20;;;;;;;4.43;2.90;;;19.30;80.70;;;;;;5093225;28;20032;-65
2023/06/15 06:49:06;;;;;;;4.50;2.42;;;19.40;80.50;;;;;;5104382;27;20043;-65
2023/06/15 06:51:52;;;;;;;5.03;3.15;;;19.40;80.30;;;;;;5091733;28;20111;-65
2023/06/15 06:54:38;;;;;;;6.78;3.38;;;19.50;80.30;;;;;;5095147;27;20043;-65
2023/06/15 06:57:24;;;;;;;5.15;2.90;;;19.60;80.10;;;;;;5091451;28;20024;-65
2023/06/15 07:00:11;;;;;;;6.43;3.10;;;19.60;79.80;;;;;;5102639;28;20044;-65
2023/06/15 07:02:57;;;;;;;7.53;3.10;;;19.70;79.80;;;;;;5101035;28;20472;-66
2023/06/15 07:05:43;;;;;;;7.70;2.60;;;19.80;80.00;;;;;;5093829;28;20024;-66
2023/06/15 07:08:29;;;;;;;5.97;3.00;;;19.90;79.70;;;;;;5086872;28;20054;-66
2023/06/15 07:11:15;;;;;;;5.00;3.40;;;19.90;79.10;;;;;;5102785;28;20119;-66
2023/06/15 07:14:03;;;;;;;6.53;3.33;;;20.00;79.00;;;;;;5105926;28;20451;-67
2023/06/15 07:16:49;;;;;;;4.78;2.65;;;20.00;79.00;;;;;;5099251;27;20043;-67
2023/06/15 07:19:35;;;;;;;6.38;3.33;;;20.10;78.40;;;;;;5097291;28;20036;-66
2023/06/15 07:22:21;;;;;;;4.13;2.50;;;20.20;78.40;;;;;;5090620;28;20028;-66
2023/06/15 07:25:07;;;;;;;4.30;2.83;;;20.30;78.50;;;;;;5094898;28;20035;-67
2023/06/15 07:27:53;;;;;;;5.68;2.70;;;20.50;77.70;;;;;;5091813;27;20071;-67
2023/06/15 07:30:39;;;;;;;7.10;3.03;;;20.60;78.00;;;;;;5098951;28;20035;-66
2023/06/15 07:33:25;;;;;;;5.32;3.70;;;20.80;77.50;;;;;;5099541;28;20369;-66
2023/06/15 07:36:11;;;;;;;6.75;2.80;;;20.90;76.90;;;;;;5093384;28;20038;-66
2023/06/15 07:38:57;;;;;;;3.97;2.70;;;21.00;76.30;;;;;;5101501;28;20031;-66
2023/06/15 07:41:43;;;;;;;9.40;3.13;;;21.00;75.80;;;;;;5096921;28;20040;-66
2023/06/15 07:44:29;;;;;;;6.50;3.20;;;21.00;76.10;;;;;;5096821;27;20145;-66
2023/06/15 07:47:14;;;;;;;5.00;3.50;;;21.20;76.00;;;;;;5091778;28;20105;-66
2023/06/15 07:50:00;;;;;;;5.85;3.20;;;21.10;75.50;;;;;;5094887;28;22035;-66
2023/06/15 07:52:46;;;;;;;6.20;3.05;;;21.10;75.40;;;;;;5090703;28;20535;-66
2023/06/15 07:55:32;;;;;;;4.35;2.90;;;21.10;75.30;;;;;;5091095;28;20044;-65
2023/06/15 07:58:18;;;;;;;4.50;3.13;;;21.00;75.40;;;;;;5104404;27;20027;-65
2023/06/15 08:01:04;;;;;;;6.50;3.05;;;21.00;75.70;;;;;;5107225;28;20035;-65
2023/06/15 08:03:50;;;;;;;6.25;2.72;;;21.00;75.80;;;;;;5108852;28;20074;-66
2023/06/15 08:06:36;;;;;;;5.45;3.50;;;20.90;75.80;;;;;;5118945;27;20083;-66
2023/06/15 08:09:22;;;;;;;9.80;3.60;;;20.90;75.90;;;;;;5111881;27;20032;-65
2023/06/15 08:12:09;;;;;;;5.78;2.97;;;20.90;75.80;;;;;;5094306;27;20020;-65
2023/06/15 08:14:55;;;;;;;13.40;3.35;;;20.90;76.00;;;;;;5090016;28;20044;-66
2023/06/15 08:17:41;;;;;;;5.82;3.30;;;20.90;76.00;;;;;;5081877;28;20396;-65
2023/06/15 08:20:27;;;;;;;5.60;3.35;;;20.90;76.10;;;;;;5099383;28;20035;-65
2023/06/15 08:23:13;;;;;;;5.68;3.40;;;21.00;76.10;;;;;;5091650;28;20097;-67
2023/06/15 08:25:59;;;;;;;5.47;2.75;;;21.10;76.50;;;;;;5093061;27;20507;-66
2023/06/15 08:28:45;;;;;;;4.35;2.83;;;21.20;76.00;;;;;;5089924;28;20028;-66
2023/06/15 08:31:33;;;;;;;8.20;3.47;;;21.20;75.80;;;;;;5091456;28;20085;-66
2023/06/15 08:34:19;;;;;;;5.40;3.33;;;21.30;76.10;;;;;;5088984;28;20055;-65
2023/06/15 08:37:05;;;;;;;7.75;3.88;;;21.40;76.10;;;;;;5096598;28;20030;-65
2023/06/15 08:39:51;;;;;;;8.82;3.28;;;21.50;76.00;;;;;;5099536;27;20547;-65
2023/06/15 08:42:38;;;;;;;8.88;3.97;;;21.60;75.70;;;;;;5097043;28;20028;-65
2023/06/15 08:45:32;;;;;;;6.10;3.58;;;21.70;75.90;;;;;;5088754;27;20123;-65
2023/06/15 08:48:19;;;;;;;5.00;3.13;;;21.80;75.20;;;;;;5088693;28;20035;-66
2023/06/15 08:51:06;;;;;;;4.72;3.13;;;21.80;74.60;;;;;;5089557;28;20049;-66
2023/06/15 08:53:54;;;;;;;8.98;2.90;;;21.90;74.30;;;;;;5089622;28;20036;-66
2023/06/15 08:56:41;;;;;;;4.60;3.08;;;22.00;73.80;;;;;;5097498;27;20477;-66
2023/06/15 08:59:29;;;;;;;4.38;3.15;;;22.10;74.00;;;;;;5075176;28;20082;-65
2023/06/15 09:02:20;;;;;;;6.82;3.30;;;22.20;73.20;;;;;;5092803;28;20032;-65
2023/06/15 09:05:07;;;;;;;10.32;3.10;;;22.40;73.20;;;;;;5091257;28;20035;-66
2023/06/15 09:07:53;;;;;;;7.50;3.67;;;22.50;72.20;;;;;;5101480;27;20027;-65
2023/06/15 09:10:41;;;;;;;5.80;3.20;;;22.60;71.90;;;;;;5099137;27;20100;-65
2023/06/15 09:13:32;;;;;;;4.95;3.15;;;22.70;71.70;;;;;;5114045;27;20571;-66
2023/06/15 09:16:18;;;;;;;4.28;2.53;;;22.90;70.80;;;;;;5097909;28;20067;-65
2023/06/15 09:19:16;;;;;;;8.68;3.00;;;23.00;70.80;;;;;;5091238;28;20043;-65
2023/06/15 09:22:05;;;;;;;4.38;2.65;;;23.20;70.60;;;;;;5093839;28;20039;-66
2023/06/15 09:24:51;;;;;;;7.20;3.80;;;23.30;70.30;;;;;;5092459;28;20081;-65
2023/06/15 09:27:37;;;;;;;5.28;3.10;;;23.40;69.90;;;;;;5100282;28;20047;-65
2023/06/15 09:30:33;;;;;;;6.57;3.42;;;23.40;68.50;;;;;;5089821;28;20544;-65
2023/06/15 09:33:20;;;;;;;6.88;2.95;;;23.40;68.50;;;;;;5094656;28;20028;-66
2023/06/15 09:36:06;;;;;;;4.32;3.00;;;23.40;67.80;;;;;;5094826;28;20033;-65
2023/06/15 09:38:55;;;;;;;5.90;3.55;;;23.30;67.00;;;;;;5088064;28;20036;-65
2023/06/15 09:41:56;;;;;;;5.75;3.50;;;23.30;67.30;;;;;;5109672;28;20400;-65
2023/06/15 09:44:43;;;;;;;6.38;2.60;;;23.30;67.00;;;;;;5101129;28;20290;-64
2023/06/15 09:47:30;;;;;;;5.40;3.30;;;23.30;67.20;;;;;;5093322;28;20441;-65
2023/06/15 09:50:16;;;;;;;5.75;2.83;;;23.30;66.00;;;;;;5092400;28;20043;-66
2023/06/15 09:53:03;;;;;;;5.00;3.13;;;23.30;65.90;;;;;;5087701;28;20493;-66
2023/06/15 09:55:49;;;;;;;6.82;3.05;;;23.30;64.70;;;;;;5090867;28;20075;-65
2023/06/15 09:58:35;;;;;;;3.63;2.88;;;23.30;64.80;;;;;;5105819;28;20035;-65
2023/06/15 10:01:26;;;;;;;3.53;2.55;;;23.30;65.00;;;;;;5095618;28;20043;-66
2023/06/15 10:04:14;;;;;;;3.08;2.20;;;23.30;64.70;;;;;;5093730;28;20252;-66
2023/06/15 10:07:04;;;;;;;8.38;3.58;;;23.30;64.60;;;;;;5091252;28;20032;-65
2023/06/15 10:09:52;;;;;;;6.55;3.17;;;23.30;64.30;;;;;;5091943;28;20051;-65
2023/06/15 10:12:43;;;;;;;9.75;4.57;;;23.20;64.50;;;;;;5100461;27;20038;-65
2023/06/15 10:15:31;;;;;;;4.53;3.42;;;23.10;64.90;;;;;;5096738;28;20048;-68
2023/06/15 10:18:18;;;;;;;6.25;3.45;;;23.00;65.40;;;;;;5092478;28;20032;-69
2023/06/15 10:21:06;;;;;;;6.03;3.30;;;22.90;65.90;;;;;;5100074;27;20416;-67
2023/06/15 10:23:55;;;;;;;6.75;3.60;;;22.90;66.30;;;;;;5110146;28;20381;-66
2023/06/15 10:26:43;;;;;;;6.18;3.42;;;22.80;66.80;;;;;;5095744;27;20024;-66
2023/06/15 10:29:47;;;;;;;10.00;3.60;;;22.80;67.00;;;;;;5104786;28;20043;-68
2023/06/15 10:32:59;;;;;;;4.78;3.05;;;22.80;66.90;;;;;;5093269;28;20036;-68
2023/06/15 10:35:53;;;;;;;5.05;3.25;;;22.80;66.80;;;;;;5091923;28;20048;-67
2023/06/15 10:38:58;;;;;;;4.20;2.80;;;22.70;66.50;;;;;;5099168;28;20031;-64
2023/06/15 10:41:45;;;;;;;3.85;3.03;;;22.70;66.30;;;;;;5099806;27;20035;-64
2023/06/15 10:44:31;;;;;;;6.72;3.35;;;22.60;65.60;;;;;;5092166;28;20070;-64
2023/06/15 10:47:21;;;;;;;6.45;2.70;;;22.50;65.90;;;;;;5105495;28;20028;-64
2023/06/15 10:50:14;;;;;;;6.05;2.85;;;22.60;65.10;;;;;;5100379;28;20081;-64
2023/06/15 10:53:01;;;;;;;5.13;2.63;;;22.50;65.30;;;;;;5097973;28;20540;-64
2023/06/15 10:55:51;;;;;;;8.00;3.17;;;22.50;64.60;;;;;;5094018;27;20503;-64
2023/06/15 10:58:51;;;;;;;6.32;3.13;;;22.50;64.40;;;;;;5102479;27;20480;-64
2023/06/15 11:01:37;;;;;;;5.35;3.03;;;22.40;64.30;;;;;;5104346;28;20035;-65
2023/06/15 11:04:30;;;;;;;4.30;2.70;;;22.40;64.20;;;;;;5099806;28;20039;-64
2023/06/15 11:07:27;;;;;;;5.80;3.00;;;22.40;63.70;;;;;;5091368;28;20039;-64
2023/06/15 11:10:14;;;;;;;4.72;2.63;;;22.30;63.80;;;;;;5093991;27;20044;-63
2023/06/15 11:13:03;;;;;;;3.88;2.47;;;22.30;63.50;;;;;;5090370;28;20039;-66
2023/06/15 11:16:08;;;;;;;4.10;2.75;;;22.20;63.50;;;;;;5101645;27;20036;-63
2023/06/15 11:18:55;;;;;;;;;;;22.20;63.60;;;;;;5102138;28;20400;-64
2023/06/15 11:21:48;;;;;;;7.03;2.75;;;22.20;64.00;;;;;;5102510;28;19907;-64
2023/06/15 11:24:38;;;;;;;8.55;2.70;;;22.20;63.90;;;;;;5089303;28;20039;-64
2023/06/15 11:27:25;;;;;;;5.50;2.67;;;22.30;63.70;;;;;;5095562;28;20076;-64
2023/06/15 11:30:11;;;;;;;6.15;2.70;;;22.30;63.10;;;;;;5103032;27;20448;-64
2023/06/15 11:32:57;;;;;;;7.03;2.38;;;22.30;63.50;;;;;;5094772;27;20036;-64
2023/06/15 11:35:43;;;;;;;5.43;3.10;;;22.40;63.40;;;;;;5111577;27;20411;-65
2023/06/15 11:38:30;;;;;;;6.03;3.08;;;22.50;63.40;;;;;;5094156;28;20059;-64
2023/06/15 11:41:16;;;;;;;7.70;2.88;;;22.70;63.20;;;;;;5102086;27;21256;-65
2023/06/15 11:44:02;;;;;;;3.95;2.28;;;22.80;62.90;;;;;;5096066;28;20036;-65
2023/06/15 11:46:58;;;;;;;5.35;2.47;;;22.90;62.20;;;;;;5091508;28;20071;-64
2023/06/15 11:49:46;;;;;;;4.68;2.28;;;23.00;62.60;;;;;;5090928;28;20035;-65
2023/06/15 11:52:32;;;;;;;4.10;2.70;;;23.10;62.00;;;;;;5094876;28;20035;-65
2023/06/15 11:55:19;;;;;;;6.10;3.05;;;23.10;62.10;;;;;;5093608;27;20035;-65
2023/06/15 11:58:08;;;;;;;4.95;2.40;;;23.20;62.40;;;;;;5092535;28;20020;-66
2023/06/15 12:00:54;;;;;;;5.35;2.50;;;23.20;61.60;;;;;;5103319;28;20472;-64
2023/06/15 12:03:44;;;;;;;9.82;2.65;;;23.20;61.20;;;;;;5100055;28;20082;-64
2023/06/15 12:06:30;;;;;;;6.57;2.75;;;23.20;61.50;;;;;;5100337;28;20126;-64
2023/06/15 12:09:18;;;;;;;5.50;2.78;;;23.10;61.20;;;;;;5099275;28;20035;-64
2023/06/15 12:12:07;;;;;;;5.38;2.50;;;23.00;61.80;;;;;;5096875;27;20488;-64
2023/06/15 12:14:53;;;;;;;8.23;2.97;;;23.00;62.10;;;;;;5093656;28;20039;-64
2023/06/15 12:17:41;;;;;;;4.95;2.38;;;23.00;62.60;;;;;;5089863;28;20040;-64
2023/06/15 12:20:28;;;;;;;9.02;3.17;;;23.10;62.90;;;;;;5093522;27;20050;-64
2023/06/15 12:23:30;;;;;;;12.23;3.88;;;23.20;62.50;;;;;;5090113;28;20133;-64
2023/06/15 12:26:17;;;;;;;5.20;2.47;;;23.40;62.20;;;;;;5096493;27;20053;-64
2023/06/15 12:29:14;;;;;;;6.85;3.08;;;23.60;61.80;;;;;;5090594;28;20454;-64
2023/06/15 12:32:00;;;;;;;4.95;2.90;;;23.80;61.10;;;;;;5089253;28;20470;-64
2023/06/15 12:34:46;;;;;;;4.57;2.40;;;24.10;60.40;;;;;;5092951;28;20127;-65
2023/06/15 12:37:33;;;;;;;3.65;2.58;;;24.20;60.40;;;;;;5089324;28;20511;-65
2023/06/15 12:40:22;;;;;;;6.25;3.00;;;24.30;60.20;;;;;;5088890;28;20028;-63
2023/06/15 12:43:09;;;;;;;5.00;2.53;;;24.30;59.80;;;;;;5089961;28;20498;-63
2023/06/15 12:45:55;;;;;;;4.30;2.50;;;24.20;59.70;;;;;;5098490;28;20035;-64
2023/06/15 12:48:41;;;;;;;4.05;2.50;;;24.10;59.90;;;;;;5097412;27;20032;-63
2023/06/15 12:51:26;;;;;;;6.07;2.47;;;24.00;59.90;;;;;;5095350;28;20043;-64
2023/06/15 12:54:12;;;;;;;4.85;2.70;;;23.90;59.70;;;;;;5104406;27;20130;-64
2023/06/15 12:56:58;;;;;;;4.55;2.70;;;23.90;59.70;;;;;;5088939;28;20034;-63
2023/06/15 12:59:44;;;;;;;5.00;2.55;;;23.80;59.70;;;;;;5090568;28;20039;-64
2023/06/15 13:02:32;;;;;;;7.30;2.67;;;23.90;59.40;;;;;;5089708;28;20039;-64
2023/06/15 13:05:18;;;;;;;3.88;2.25;;;23.80;58.90;;;;;;5103201;28;20028;-64
2023/06/15 13:08:05;;;;;;;3.63;2.20;;;23.70;59.10;;;;;;5095482;28;20027;-63
2023/06/15 13:10:51;;;;;;;4.55;2.50;;;23.60;59.30;;;;;;5097658;28;20049;-63
2023/06/15 13:13:37;;;;;;;5.10;2.40;;;23.50;59.80;;;;;;5091668;28;20032;-63
2023/06/15 13:16:23;;;;;;;3.70;2.08;;;23.40;60.30;;;;;;5100333;28;20356;-63
2023/06/15 13:19:10;;;;;;;5.75;2.65;;;23.40;60.70;;;;;;5093881;27;20036;-65
2023/06/15 13:21:55;;;;;;;7.95;2.75;;;23.30;61.10;;;;;;5094206;28;20028;-62
2023/06/15 13:24:41;;;;;;;4.80;2.42;;;23.20;60.90;;;;;;5088027;28;20039;-62
2023/06/15 13:27:27;;;;;;;7.88;2.60;;;23.20;61.00;;;;;;5099990;28;20035;-62
2023/06/15 13:30:14;;;;;;;5.00;2.35;;;23.20;61.30;;;;;;5095325;28;20040;-62
2023/06/15 13:33:00;;;;;;;5.75;2.53;;;23.30;61.20;;;;;;5104683;27;20024;-62
2023/06/15 13:35:47;;;;;;;6.50;2.88;;;23.30;61.20;;;;;;5100071;28;20047;-63
2023/06/15 13:38:33;;;;;;;4.72;2.50;;;23.40;61.60;;;;;;5093125;28;20468;-62
2023/06/15 13:41:19;;;;;;;5.57;2.58;;;23.50;61.30;;;;;;5091980;28;20046;-64
2023/06/15 13:44:05;;;;;;;4.38;2.78;;;23.50;60.90;;;;;;5092076;28;20034;-62
2023/06/15 13:46:51;;;;;;;3.17;2.35;;;23.60;60.80;;;;;;5112720;28;20433;-63
2023/06/15 13:49:37;;;;;;;5.18;2.40;;;23.60;60.90;;;;;;5101401;28;20444;-61
2023/06/15 13:52:23;;;;;;;5.10;2.65;;;23.70;61.20;;;;;;5096075;28;20081;-64
2023/06/15 13:55:10;;;;;;;3.50;2.50;;;23.80;61.10;;;;;;5094200;28;20043;-63
2023/06/15 13:57:56;;;;;;;4.07;2.63;;;24.00;61.40;;;;;;5094052;28;20078;-63
2023/06/15 14:00:42;;;;;;;4.10;2.33;;;24.20;61.10;;;;;;5102081;28;20455;-62
2023/06/15 14:03:28;;;;;;;7.53;2.85;;;24.50;60.10;;;;;;5089691;28;20079;-62
2023/06/15 14:06:15;;;;;;;4.85;2.45;;;24.50;59.50;;;;;;5093755;28;20110;-63
2023/06/15 14:09:01;;;;;;;3.33;2.47;;;24.50;59.70;;;;;;5094700;28;20482;-63
2023/06/15 14:11:47;;;;;;;6.47;2.63;;;24.70;58.70;;;;;;5091945;28;20024;-63
2023/06/15 14:14:34;;;;;;;5.47;3.13;;;25.00;58.70;;;;;;5099888;28;20126;-63
2023/06/15 14:17:20;;;;;;;8.77;3.05;;;25.30;58.10;;;;;;5102086;28;20028;-64
2023/06/15 14:20:08;;;;;;;4.03;2.55;;;25.50;58.00;;;;;;5098279;28;20032;-62
2023/06/15 14:22:54;;;;;;;4.32;2.60;;;25.50;57.90;;;;;;5095738;28;20031;-61
2023/06/15 14:25:40;;;;;;;8.38;2.47;;;25.30;58.00;;;;;;5096259;28;20032;-62
2023/06/15 14:28:26;;;;;;;4.10;2.40;;;24.80;59.00;;;;;;5078495;28;20028;-62
2023/06/15 14:31:12;;;;;;;4.00;2.40;;;24.30;60.60;;;;;;5097522;28;20031;-63
2023/06/15 14:33:58;;;;;;;5.43;2.67;;;24.00;61.40;;;;;;5090705;28;20599;-61